Time;durP1;ratioP1;P1;durP2;ratioP2;P2;SDS_P1;SDS_P2;PMS_P1;PMS_P2;Temp;Humidity;BMP_temperature;BMP_pressure;BME280_temperature;BME280_humidity;BME280_pressure;Samples;Min_cycle;Max_cycle;Signal;HPM_P1;HPM_P2
2022/01/26 00:06:36;;;;;;;46.00;19.85;;;;;;;5.72;100.00;102832.91;5042946;28;20040;-82
2022/01/26 00:09:04;;;;;;;44.67;20.15;;;;;;;5.77;100.00;102834.44;5041629;28;20079;-78
2022/01/26 00:11:32;;;;;;;51.60;20.52;;;;;;;5.70;100.00;102832.16;5022369;28;20120;-83
2022/01/26 00:13:59;;;;;;;54.10;20.83;;;;;;;5.75;100.00;102845.22;5032927;28;20041;-83
2022/01/26 00:16:37;;;;;;;56.05;21.60;;;;;;;5.76;100.00;102840.72;5032815;28;20033;-78
2022/01/26 00:19:05;;;;;;;47.65;20.20;;;;;;;5.80;100.00;102844.94;5036254;28;20056;-82
2022/01/26 00:21:47;;;;;;;46.05;19.02;;;;;;;5.84;100.00;102847.31;5046090;28;20450;-83
2022/01/26 00:24:38;;;;;;;38.20;13.10;;;;;;;5.79;100.00;102833.38;5033200;28;20063;-81
2022/01/26 00:27:07;;;;;;;43.50;15.77;;;;;;;5.85;100.00;102840.19;5035209;28;20071;-81
2022/01/26 00:29:38;;;;;;;40.22;17.48;;;;;;;5.82;100.00;102837.69;5029214;28;20036;-83
2022/01/26 00:40:16;;;;;;;44.42;16.83;;;;;;;5.70;100.00;102809.94;5022791;28;20117;-83
2022/01/26 00:42:45;;;;;;;54.55;20.08;;;;;;;5.80;100.00;102832.44;5045205;28;20033;-80
2022/01/26 00:45:11;;;;;;;50.35;17.95;;;;;;;5.81;100.00;102843.97;5045246;28;20083;-81
2022/01/26 00:47:37;;;;;;;39.67;15.23;;;;;;;5.82;100.00;102851.03;5047692;28;20044;-81
2022/01/26 00:50:07;;;;;;;44.53;18.10;;;;;;;5.79;100.00;102843.22;5027356;28;20132;-82
2022/01/26 00:52:41;;;;;;;49.45;18.17;;;;;;;5.77;100.00;102846.00;5043177;28;20033;-82
2022/01/26 00:55:17;;;;;;;50.67;19.23;;;;;;;5.70;100.00;102837.47;5039044;28;20430;-80
2022/01/26 00:57:44;;;;;;;52.75;20.83;;;;;;;5.71;100.00;102849.00;5013814;28;20403;-80
2022/01/26 01:00:25;;;;;;;52.10;22.17;;;;;;;5.70;100.00;102847.31;5015705;28;20474;-78
2022/01/26 01:02:52;;;;;;;49.65;18.02;;;;;;;5.63;100.00;102845.94;5040731;28;20128;-79
2022/01/26 01:05:21;;;;;;;46.75;18.52;;;;;;;5.70;100.00;102849.97;5030989;28;20119;-78
2022/01/26 01:07:51;;;;;;;46.40;19.40;;;;;;;5.70;100.00;102850.84;5028821;28;20029;-80
2022/01/26 01:10:20;;;;;;;47.20;19.42;;;;;;;5.71;100.00;102859.69;5047597;28;20438;-78
2022/01/26 01:12:48;;;;;;;46.33;18.00;;;;;;;5.69;100.00;102858.94;5049828;28;20113;-79
2022/01/26 01:15:14;;;;;;;49.08;17.67;;;;;;;5.46;100.00;102829.16;5031586;28;20048;-80
2022/01/26 01:17:46;;;;;;;45.17;19.17;;;;;;;5.63;100.00;102857.47;5034183;28;20028;-79
2022/01/26 01:20:47;;;;;;;46.92;18.80;;;;;;;5.58;100.00;102850.69;5018441;28;20048;-80
2022/01/26 01:31:18;;;;;;;45.35;18.80;;;;;;;5.54;100.00;102844.69;5024708;28;20102;-79
2022/01/26 01:33:48;;;;;;;45.65;17.83;;;;;;;5.52;100.00;102841.25;5030363;28;20048;-77
2022/01/26 01:36:14;;;;;;;44.88;18.15;;;;;;;5.43;100.00;102821.34;5026247;28;20079;-79
2022/01/26 01:38:42;;;;;;;41.60;16.35;;;;;;;5.52;100.00;102830.59;5043631;28;20037;-79
2022/01/26 01:41:08;;;;;;;38.95;17.77;;;;;;;5.44;100.00;102817.69;5038996;28;20052;-77
2022/01/26 01:43:37;;;;;;;43.35;17.08;;;;;;;5.54;100.00;102838.50;5015474;28;20068;-79
2022/01/26 01:46:03;;;;;;;37.38;16.85;;;;;;;5.56;100.00;102829.47;5032767;28;21759;-79
2022/01/26 01:48:31;;;;;;;50.63;17.13;;;;;;;5.56;100.00;102832.13;5026197;28;20121;-78
2022/01/26 01:51:00;;;;;;;41.08;15.82;;;;;;;5.57;100.00;102831.16;5019902;28;20037;-80
2022/01/26 01:53:34;;;;;;;46.63;18.55;;;;;;;5.51;100.00;102828.88;5047363;28;20197;-79
2022/01/26 01:56:01;;;;;;;40.70;16.40;;;;;;;5.57;100.00;102827.66;5040058;28;20589;-78
2022/01/26 01:58:27;;;;;;;41.25;16.42;;;;;;;5.60;100.00;102833.66;5020133;28;20514;-78
2022/01/26 02:00:53;;;;;;;46.47;17.13;;;;;;;5.62;100.00;102831.75;5031017;28;20017;-78
2022/01/26 02:03:19;;;;;;;47.05;19.67;;;;;;;5.57;100.00;102824.97;5018265;28;20132;-79
2022/01/26 02:05:45;;;;;;;40.17;17.20;;;;;;;5.58;100.00;102826.69;5055128;28;20115;-80
2022/01/26 02:08:13;;;;;;;40.17;16.50;;;;;;;5.61;100.00;102832.72;5038137;28;20279;-82
2022/01/26 02:10:42;;;;;;;40.85;17.13;;;;;;;5.60;100.00;102832.78;5010917;28;20380;-79
2022/01/26 02:13:18;;;;;;;38.50;17.35;;;;;;;5.36;100.00;102789.78;5044676;28;20610;-81
2022/01/26 02:16:07;;;;;;;39.50;16.83;;;;;;;5.60;100.00;102830.97;5044840;28;20051;-79
2022/01/26 02:21:43;;;;;;;47.05;18.00;;;;;;;5.62;100.00;102829.09;5040336;28;20053;-82
2022/01/26 03:02:07;;;;;;;38.60;15.18;;;;;;;6.03;100.00;102782.13;5026682;28;20032;-81
2022/01/26 03:07:11;;;;;;;39.47;15.02;;;;;;;6.08;100.00;102780.88;5029127;28;20025;-81
2022/01/26 03:09:43;;;;;;;29.20;13.85;;;;;;;6.13;100.00;102784.13;5018651;28;20246;-81
2022/01/26 03:12:11;;;;;;;35.55;13.35;;;;;;;6.11;100.00;102786.06;5045209;28;20033;-79
2022/01/26 03:15:43;;;;;;;30.75;12.85;;;;;;;6.06;100.00;102780.13;5009917;28;20037;-80
2022/01/26 03:17:52;;;;;;;36.25;13.63;;;;;;;5.96;100.00;102778.16;5039989;28;20053;-82
2022/01/26 03:20:17;;;;;;;32.65;14.68;;;;;;;5.85;100.00;102760.94;5031066;28;20103;-81
2022/01/26 03:28:39;;;;;;;32.80;14.60;;;;;;;5.77;100.00;102765.03;5032650;28;20112;-80
2022/01/26 03:36:15;;;;;;;33.10;15.40;;;;;;;5.59;100.00;102761.72;5023334;28;20071;-80
2022/01/26 03:38:45;;;;;;;29.73;14.63;;;;;;;5.49;100.00;102761.41;5010951;28;20120;-81
2022/01/26 03:41:28;;;;;;;41.28;15.57;;;;;;;5.37;100.00;102756.78;5030918;28;20033;-83
2022/01/26 03:43:53;;;;;;;38.58;13.93;;;;;;;5.23;100.00;102755.81;5040977;28;20068;-81
2022/01/26 03:46:19;;;;;;;38.17;16.02;;;;;;;5.24;100.00;102760.22;5038693;28;20491;-81
2022/01/26 03:48:44;;;;;;;36.05;14.98;;;;;;;5.09;100.00;102742.47;5058389;28;20040;-80
2022/01/26 03:51:10;;;;;;;35.47;15.60;;;;;;;5.14;100.00;102755.53;5059068;28;20033;-80
2022/01/26 03:53:36;;;;;;;39.65;14.77;;;;;;;4.93;100.00;102728.34;5045719;28;20033;-81
2022/01/26 03:56:02;;;;;;;30.90;14.27;;;;;;;5.11;100.00;102751.25;5034726;28;20490;-80
2022/01/26 03:58:27;;;;;;;42.67;16.58;;;;;;;5.17;100.00;102744.69;5043517;28;20486;-81
2022/01/26 04:00:53;;;;;;;37.50;16.77;;;;;;;5.16;100.00;102735.81;5041277;28;20033;-81
2022/01/26 04:03:19;;;;;;;36.58;15.38;;;;;;;5.19;100.00;102743.63;5042921;28;20060;-81
2022/01/26 04:05:44;;;;;;;40.00;15.48;;;;;;;5.11;100.00;102723.69;5014181;28;20537;-80
2022/01/26 04:08:17;;;;;;;37.75;15.98;;;;;;;5.03;100.00;102725.03;5047864;28;20040;-81
2022/01/26 04:13:08;;;;;;;44.00;16.95;;;;;;;4.98;100.00;102712.94;5042195;28;20440;-80
2022/01/26 04:15:35;;;;;;;35.92;16.80;;;;;;;5.04;100.00;102717.88;5045474;28;20465;-79
2022/01/26 04:18:08;;;;;;;42.35;16.98;;;;;;;5.10;100.00;102728.19;5049315;28;20087;-82
2022/01/26 04:20:39;;;;;;;43.38;15.85;;;;;;;5.10;100.00;102727.31;5030990;28;20463;-82
2022/01/26 04:23:14;;;;;;;38.00;15.43;;;;;;;5.11;100.00;102735.25;5015859;28;20072;-80
2022/01/26 04:25:42;;;;;;;36.97;15.63;;;;;;;5.07;100.00;102718.53;5030898;28;20041;-84
2022/01/26 04:28:13;;;;;;;36.78;15.10;;;;;;;5.02;100.00;102703.78;5038604;28;20040;-81
2022/01/26 04:30:38;;;;;;;34.03;15.45;;;;;;;5.22;100.00;102723.94;5041892;28;20162;-81
2022/01/26 04:33:05;;;;;;;33.58;13.80;;;;;;;5.26;100.00;102736.97;5015189;28;20785;-78
2022/01/26 04:35:32;;;;;;;37.28;14.50;;;;;;;5.32;100.00;102732.22;5046733;28;20029;-83
2022/01/26 04:40:39;;;;;;;36.17;13.82;;;;;;;5.32;100.00;102719.75;5043324;28;20546;-80
2022/01/26 04:43:12;;;;;;;30.05;13.88;;;;;;;5.27;100.00;102720.03;5040932;28;20379;-82
2022/01/26 04:45:40;;;;;;;30.50;13.15;;;;;;;5.24;100.00;102716.69;5030704;28;20402;-82
2022/01/26 04:48:06;;;;;;;34.10;13.30;;;;;;;5.24;100.00;102720.22;5046935;28;20090;-81
2022/01/26 04:50:32;;;;;;;25.83;13.18;;;;;;;5.20;100.00;102716.00;5025068;28;20040;-79
2022/01/26 04:52:57;;;;;;;25.80;10.27;;;;;;;5.10;100.00;102695.31;5046585;28;20075;-80
2022/01/26 04:55:23;;;;;;;27.65;11.68;;;;;;;5.04;100.00;102709.88;5008546;28;20071;-79
2022/01/26 04:57:49;;;;;;;20.95;10.40;;;;;;;5.06;100.00;102710.66;5014377;28;20043;-81
2022/01/26 05:00:14;;;;;;;30.05;10.80;;;;;;;5.02;100.00;102701.13;5049934;28;20037;-83
2022/01/26 05:02:40;;;;;;;18.83;8.70;;;;;;;5.03;100.00;102697.53;5008281;28;20119;-81
2022/01/26 05:05:06;;;;;;;23.98;10.25;;;;;;;4.87;100.00;102689.56;5017155;28;20550;-81
2022/01/26 05:07:32;;;;;;;19.95;8.65;;;;;;;4.84;100.00;102703.06;5043100;28;20422;-80
2022/01/26 05:10:00;;;;;;;22.70;9.10;;;;;;;4.73;100.00;102698.38;5026705;28;20477;-82
2022/01/26 05:12:25;;;;;;;16.17;7.15;;;;;;;4.65;100.00;102700.63;5045398;28;20037;-84
2022/01/26 05:14:51;;;;;;;13.43;5.45;;;;;;;4.65;100.00;102687.31;5028535;28;20043;-82
2022/01/26 05:17:20;;;;;;;18.65;8.07;;;;;;;4.62;100.00;102690.16;5030330;28;20037;-82
2022/01/26 05:19:46;;;;;;;14.63;6.80;;;;;;;4.74;100.00;102720.56;5041077;28;20040;-83
2022/01/26 05:22:12;;;;;;;12.70;6.63;;;;;;;4.72;100.00;102715.31;5047694;28;20037;-80
2022/01/26 05:24:38;;;;;;;14.45;6.32;;;;;;;4.70;100.00;102703.03;5013780;28;20088;-85
2022/01/26 05:27:04;;;;;;;11.57;4.55;;;;;;;4.85;100.00;102708.31;5010987;28;20033;-83
2022/01/26 05:29:29;;;;;;;14.45;5.82;;;;;;;4.83;100.00;102680.88;5061512;28;20035;-83
2022/01/26 05:31:55;;;;;;;15.32;6.07;;;;;;;4.95;100.00;102707.75;5018120;28;20064;-81
2022/01/26 05:34:20;;;;;;;19.65;8.13;;;;;;;4.87;100.00;102689.56;5046706;28;20080;-82
2022/01/26 05:36:46;;;;;;;16.60;6.18;;;;;;;4.97;100.00;102709.38;5049852;28;20037;-80
2022/01/26 05:39:12;;;;;;;11.60;5.55;;;;;;;4.81;100.00;102685.44;5031160;28;20067;-82
2022/01/26 05:41:38;;;;;;;13.27;6.30;;;;;;;4.90;100.00;102704.53;5055149;28;20064;-79
2022/01/26 05:44:05;;;;;;;17.40;6.50;;;;;;;4.91;100.00;102706.22;5041976;28;20467;-79
2022/01/26 05:46:38;;;;;;;16.27;7.15;;;;;;;4.70;100.00;102679.03;5011883;28;20033;-82
2022/01/26 05:49:06;;;;;;;14.57;7.57;;;;;;;4.77;100.00;102697.25;5025877;28;20244;-79
2022/01/26 05:51:33;;;;;;;17.20;6.07;;;;;;;4.74;100.00;102692.09;5045140;28;20457;-80
2022/01/26 05:54:01;;;;;;;18.00;6.15;;;;;;;4.85;100.00;102699.47;5032053;28;20075;-78
2022/01/26 05:56:26;;;;;;;13.95;5.30;;;;;;;4.69;100.00;102662.19;5069585;28;20036;-81
2022/01/26 05:58:52;;;;;;;13.57;5.15;;;;;;;4.95;100.00;102699.75;5060498;28;20028;-80
2022/01/26 06:01:20;;;;;;;17.00;6.63;;;;;;;5.04;100.00;102675.22;5022473;28;20106;-81
2022/01/26 06:03:45;;;;;;;9.15;3.83;;;;;;;5.18;100.00;102677.91;5048831;28;20040;-79
2022/01/26 06:06:15;;;;;;;8.50;4.28;;;;;;;5.35;100.00;102670.69;5030613;28;20028;-83
2022/01/26 06:08:41;;;;;;;12.45;5.05;;;;;;;5.47;100.00;102675.25;5012697;28;20387;-78
2022/01/26 06:11:07;;;;;;;6.50;3.22;;;;;;;5.43;100.00;102649.72;5038888;28;20035;-81
2022/01/26 06:13:32;;;;;;;4.22;2.38;;;;;;;5.49;100.00;102644.00;5037773;28;20037;-79
2022/01/26 06:16:03;;;;;;;7.55;3.10;;;;;;;5.50;100.00;102657.25;5045522;28;20112;-79
2022/01/26 06:18:32;;;;;;;11.63;4.90;;;;;;;5.47;100.00;102662.75;5026673;28;20036;-80
2022/01/26 06:20:57;;;;;;;21.88;4.03;;;;;;;5.41;100.00;102664.97;5024204;28;20041;-81
2022/01/26 06:23:25;;;;;;;12.70;5.05;;;;;;;5.37;100.00;102660.75;5010849;28;20037;-82
2022/01/26 06:25:55;;;;;;;15.82;4.22;;;;;;;5.27;100.00;102655.16;5025156;28;20196;-78
2022/01/26 06:28:23;;;;;;;11.60;3.65;;;;;;;5.23;100.00;102645.63;5010184;28;20127;-82
2022/01/26 06:30:51;;;;;;;9.88;4.20;;;;;;;5.37;100.00;102666.09;5046186;28;20091;-78
2022/01/26 06:33:17;;;;;;;12.57;4.55;;;;;;;5.32;100.00;102661.06;5046021;28;20482;-79
2022/01/26 06:35:43;;;;;;;8.57;3.88;;;;;;;5.24;100.00;102658.88;5032870;28;20089;-81
2022/01/26 06:38:09;;;;;;;17.50;4.82;;;;;;;5.09;100.00;102666.97;5034208;28;20217;-81
2022/01/26 06:40:35;;;;;;;10.65;4.05;;;;;;;4.76;100.00;102655.56;5007243;28;20043;-82
2022/01/26 06:43:05;;;;;;;13.85;4.55;;;;;;;4.67;100.00;102649.91;5043608;28;20036;-79
2022/01/26 06:45:38;;;;;;;10.82;3.65;;;;;;;4.68;100.00;102662.28;5043510;28;20035;-83
2022/01/26 06:50:48;;;;;;;9.40;4.10;;;;;;;4.66;100.00;102658.84;5027540;28;20033;-82
2022/01/26 06:53:13;;;;;;;8.65;3.53;;;;;;;4.66;100.00;102638.41;5041037;28;20391;-82
2022/01/26 06:55:39;;;;;;;12.30;3.53;;;;;;;4.75;100.00;102656.50;5040705;28;20029;-80
2022/01/26 06:58:05;;;;;;;11.57;4.15;;;;;;;4.73;100.00;102650.41;5003912;28;20463;-85
2022/01/26 07:00:31;;;;;;;8.45;4.20;;;;;;;4.66;100.00;102637.53;5033420;28;20032;-82
2022/01/26 07:02:56;;;;;;;9.50;3.78;;;;;;;4.72;100.00;102639.84;5016562;28;20286;-81
2022/01/26 07:05:22;;;;;;;9.10;3.90;;;;;;;4.72;100.00;102631.84;5036989;28;20029;-78
2022/01/26 07:07:51;;;;;;;9.52;3.83;;;;;;;4.74;100.00;102637.97;5026031;28;20029;-83
2022/01/26 07:10:16;;;;;;;4.90;2.17;;;;;;;4.55;100.00;102620.41;5032423;28;20021;-82
2022/01/26 07:12:42;;;;;;;7.43;4.30;;;;;;;4.66;100.00;102643.75;5031499;28;20037;-82
2022/01/26 07:23:07;;;;;;;10.40;4.97;;;;;;;4.81;100.00;102647.28;5035256;28;20063;-83
2022/01/26 07:25:32;;;;;;;17.08;7.30;;;;;;;4.88;100.00;102653.97;5035206;28;20037;-80
2022/01/26 07:28:01;;;;;;;10.65;5.10;;;;;;;4.79;100.00;102657.16;5003193;28;20044;-83
2022/01/26 07:30:27;;;;;;;13.57;5.32;;;;;;;4.75;100.00;102655.66;5034049;28;20094;-81
2022/01/26 07:32:53;;;;;;;11.90;5.32;;;;;;;4.81;100.00;102657.94;5016874;28;20033;-81
2022/01/26 07:35:18;;;;;;;14.40;5.50;;;;;;;4.92;100.00;102662.63;5036757;28;20485;-79
2022/01/26 07:37:45;;;;;;;13.27;5.85;;;;;;;5.01;100.00;102670.09;5036902;28;20763;-80
2022/01/26 07:40:13;;;;;;;13.38;4.90;;;;;;;5.09;100.00;102683.81;5031396;28;20033;-78
2022/01/26 07:42:39;;;;;;;12.55;4.00;;;;;;;5.11;100.00;102679.25;5050994;28;20062;-80
2022/01/26 07:45:07;;;;;;;16.75;5.45;;;;;;;4.88;100.00;102637.13;5033258;28;20040;-81
2022/01/26 07:47:33;;;;;;;12.48;5.25;;;;;;;5.10;100.00;102671.31;5020486;28;20056;-78
2022/01/26 07:50:01;;;;;;;11.93;4.88;;;;;;;5.09;100.00;102662.47;5022031;28;20036;-79
2022/01/26 07:52:30;;;;;;;13.35;5.90;;;;;;;5.13;100.00;102660.47;5026548;28;20132;-79
2022/01/26 07:54:56;;;;;;;10.25;4.65;;;;;;;5.19;100.00;102670.78;5017006;28;20033;-77
2022/01/26 07:57:22;;;;;;;9.48;3.63;;;;;;;5.25;100.00;102663.25;5026088;28;20111;-81
2022/01/26 07:59:48;;;;;;;11.27;4.47;;;;;;;5.24;100.00;102666.03;5040460;28;20096;-80
2022/01/26 08:02:14;;;;;;;6.82;2.88;;;;;;;5.18;100.00;102659.22;5036926;28;20029;-79
2022/01/26 08:04:39;;;;;;;13.95;5.22;;;;;;;5.17;100.00;102662.84;5014254;28;20044;-80
2022/01/26 08:07:05;;;;;;;6.78;3.25;;;;;;;5.21;100.00;102661.72;5026010;28;20043;-80
2022/01/26 08:09:30;;;;;;;11.88;5.13;;;;;;;5.21;100.00;102667.06;5038669;28;20033;-80
2022/01/26 08:11:56;;;;;;;15.55;5.70;;;;;;;5.31;100.00;102682.50;5050589;28;20029;-84
2022/01/26 08:14:24;;;;;;;20.23;6.03;;;;;;;5.38;100.00;102695.38;5040827;28;20109;-80
2022/01/26 08:16:50;;;;;;;15.43;6.07;;;;;;;5.42;100.00;102696.03;5013305;28;20029;-78
2022/01/26 08:19:17;;;;;;;12.80;4.68;;;;;;;5.39;100.00;102685.53;5048727;28;20438;-84
2022/01/26 08:21:43;;;;;;;12.77;6.10;;;;;;;5.39;100.00;102681.06;5018413;28;20065;-80
2022/01/26 08:24:14;;;;;;;24.05;8.50;;;;;;;5.43;100.00;102681.75;5015237;28;20640;-84
2022/01/26 08:26:45;;;;;;;31.35;13.10;;;;;;;5.28;100.00;102657.72;5027889;28;20131;-80
2022/01/26 08:29:21;;;;;;;25.05;9.80;;;;;;;5.42;100.00;102685.34;5026605;28;20057;-80
2022/01/26 08:31:47;;;;;;;13.65;6.22;;;;;;;5.41;100.00;102671.16;5039269;28;20040;-80
2022/01/26 08:34:13;;;;;;;15.93;6.88;;;;;;;5.35;100.00;102657.34;5049301;28;20033;-82
2022/01/26 08:36:39;;;;;;;19.15;7.68;;;;;;;5.51;100.00;102677.63;5032270;28;20387;-80
2022/01/26 08:39:05;;;;;;;14.27;6.32;;;;;;;5.50;100.00;102672.38;5017697;28;20094;-82
2022/01/26 08:41:31;;;;;;;18.05;8.25;;;;;;;5.50;100.00;102669.72;5047731;28;20083;-81
2022/01/26 08:43:57;;;;;;;25.23;7.88;;;;;;;5.48;100.00;102668.97;5017492;28;20051;-80
2022/01/26 08:46:22;;;;;;;18.13;6.82;;;;;;;5.50;100.00;102672.38;5032746;28;20311;-85
2022/01/26 08:48:49;;;;;;;19.60;7.45;;;;;;;5.46;100.00;102666.41;5023875;28;20029;-81
2022/01/26 08:51:15;;;;;;;8.48;4.80;;;;;;;5.44;100.00;102646.09;5030415;28;20033;-84
2022/01/26 08:53:41;;;;;;;15.38;7.18;;;;;;;5.59;100.00;102653.16;5033031;28;20040;-82
2022/01/26 08:56:07;;;;;;;10.98;5.40;;;;;;;5.62;100.00;102628.94;5015183;28;20037;-82
2022/01/26 08:58:32;;;;;;;18.77;7.07;;;;;;;5.80;99.37;102636.72;5030425;28;20047;-83
2022/01/26 09:01:03;;;;;;;9.07;5.10;;;;;;;5.87;98.26;102632.69;5018154;28;20151;-82
2022/01/26 09:03:30;;;;;;;11.57;3.75;;;;;;;5.77;97.72;102626.22;5015960;28;20136;-81
2022/01/26 09:05:56;;;;;;;10.68;4.15;;;;;;;5.60;97.51;102621.97;5045338;28;20036;-80
2022/01/26 09:08:24;;;;;;;10.48;3.92;;;;;;;5.53;97.55;102617.97;5029389;28;20036;-80
2022/01/26 09:10:56;;;;;;;9.60;4.53;;;;;;;5.41;98.10;102600.94;5018312;28;20071;-79
2022/01/26 09:13:21;;;;;;;7.60;3.88;;;;;;;5.38;98.23;102612.66;5046229;28;20029;-84
2022/01/26 09:15:47;;;;;;;12.15;4.15;;;;;;;5.31;98.27;102599.81;5031836;28;20033;-80
2022/01/26 09:18:18;;;;;;;9.30;5.70;;;;;;;5.33;98.67;102601.44;5014541;28;20159;-81
2022/01/26 09:20:44;;;;;;;20.45;6.93;;;;;;;5.40;98.25;102596.53;5019652;28;20403;-81
2022/01/26 09:23:09;;;;;;;8.43;4.15;;;;;;;5.51;97.30;102588.75;5029312;28;20044;-82
2022/01/26 09:25:35;;;;;;;18.13;5.50;;;;;;;5.80;95.77;102608.22;5030833;28;20039;-85
2022/01/26 09:28:01;;;;;;;17.80;6.45;;;;;;;6.02;94.93;102605.03;5028721;28;20028;-84
2022/01/26 09:30:27;;;;;;;13.68;4.65;;;;;;;5.96;94.14;102599.25;5018986;28;20379;-80
2022/01/26 09:32:53;;;;;;;15.13;7.63;;;;;;;6.28;92.66;102613.13;5029716;28;20041;-79
2022/01/26 09:35:20;;;;;;;17.60;7.70;;;;;;;6.73;90.61;102608.31;5016506;28;20048;-84
2022/01/26 09:37:46;;;;;;;16.13;7.78;;;;;;;7.30;87.45;102621.22;5030016;28;20044;-80
2022/01/26 09:40:11;;;;;;;17.38;6.78;;;;;;;7.90;84.90;102623.13;5046878;28;20104;-82
2022/01/26 09:42:37;;;;;;;19.65;7.90;;;;;;;8.66;82.23;102622.91;5033134;28;20037;-83
2022/01/26 09:45:07;;;;;;;13.23;6.38;;;;;;;9.12;78.43;102616.63;5019532;28;20109;-81
2022/01/26 09:47:32;;;;;;;15.40;7.18;;;;;;;9.00;78.23;102610.41;5054196;28;20497;-81
2022/01/26 09:50:03;;;;;;;14.18;7.03;;;;;;;9.12;77.18;102614.81;5055973;28;20033;-82
2022/01/26 09:52:36;;;;;;;18.67;6.13;;;;;;;9.67;74.53;102620.28;5051866;28;20131;-82
2022/01/26 09:55:03;;;;;;;;;;;;;;;9.52;74.34;102616.16;5058509;28;20553;-82
2022/01/26 09:57:29;;;;;;;17.27;7.20;;;;;;;9.24;75.51;102621.91;5072005;28;19912;-82
2022/01/26 09:59:56;;;;;;;16.00;6.88;;;;;;;8.86;75.91;102575.75;5068528;28;20029;-83
2022/01/26 10:02:28;;;;;;;14.93;7.32;;;;;;;9.57;74.96;102620.16;5017035;28;20364;-81
2022/01/26 10:05:05;;;;;;;14.55;7.60;;;;;;;10.39;72.06;102616.19;5050837;28;20075;-82
2022/01/26 10:15:45;;;;;;;11.20;3.97;;;;;;;8.25;77.83;102583.97;5019558;28;20509;-81
2022/01/26 10:18:15;;;;;;;15.95;8.40;;;;;;;8.02;80.50;102602.63;5024792;28;20037;-81
2022/01/26 10:20:42;;;;;;;12.45;6.20;;;;;;;7.79;81.41;102595.44;5033897;28;20064;-80
2022/01/26 10:23:12;;;;;;;22.05;8.80;;;;;;;7.65;82.75;102601.81;5048835;28;20029;-81
2022/01/26 10:25:40;;;;;;;14.02;6.45;;;;;;;7.72;82.78;102603.06;5030503;28;20042;-81
2022/01/26 10:28:09;;;;;;;14.25;6.80;;;;;;;7.57;82.97;102598.81;5024795;28;20086;-80
2022/01/26 10:30:35;;;;;;;10.35;5.32;;;;;;;7.58;83.00;102597.84;5051960;28;20459;-83
2022/01/26 10:33:10;;;;;;;15.05;6.07;;;;;;;8.03;81.99;102584.72;5033397;28;20162;-81
2022/01/26 10:35:36;;;;;;;18.20;8.35;;;;;;;10.09;74.61;102613.22;5049793;28;20364;-82
2022/01/26 10:38:04;;;;;;;14.85;7.00;;;;;;;12.02;66.21;102609.06;5049383;28;20036;-81
2022/01/26 10:40:35;;;;;;;16.23;7.18;;;;;;;12.79;62.36;102611.88;5044583;28;20413;-84
2022/01/26 10:43:07;;;;;;;16.70;9.25;;;;;;;12.56;62.81;102605.94;5030079;28;20029;-84
2022/01/26 10:46:05;;;;;;;20.75;6.10;;;;;;;12.37;62.20;102612.22;5022049;28;20578;-83
2022/01/26 10:48:54;;;;;;;8.82;5.05;;;;;;;11.74;63.64;102605.28;5024778;28;20033;-82
2022/01/26 10:51:52;;;;;;;12.95;5.78;;;;;;;10.96;67.56;102613.06;5035809;28;20033;-82
2022/01/26 10:54:37;;;;;;;11.98;5.80;;;;;;;10.48;69.61;102605.53;5036841;28;20383;-82
2022/01/26 10:57:09;;;;;;;12.13;6.03;;;;;;;10.22;71.41;102617.59;5047431;28;20033;-84
2022/01/26 10:59:46;;;;;;;20.67;6.57;;;;;;;10.09;71.59;102615.06;5007469;28;20041;-82
2022/01/26 11:02:27;;;;;;;19.27;6.47;;;;;;;10.07;71.87;102607.13;5017300;28;20033;-88
2022/01/26 11:04:55;;;;;;;14.60;7.20;;;;;;;10.17;72.53;102603.69;5034736;28;20029;-79
2022/01/26 11:07:33;;;;;;;13.02;6.25;;;;;;;10.28;72.33;102598.28;5012816;28;20048;-81
2022/01/26 11:10:06;;;;;;;11.70;6.15;;;;;;;10.33;71.76;102593.38;5032041;28;20028;-85
2022/01/26 11:12:32;;;;;;;13.63;6.43;;;;;;;10.21;72.21;102597.03;5048688;28;20501;-86
2022/01/26 11:15:04;;;;;;;14.80;6.47;;;;;;;10.08;73.00;102587.34;5025135;28;20037;-83
2022/01/26 11:17:36;;;;;;;14.45;5.82;;;;;;;10.10;73.26;102590.72;5036377;28;20040;-83
2022/01/26 11:20:19;;;;;;;11.65;5.63;;;;;;;10.38;73.09;102593.84;5048572;28;20041;-82
2022/01/26 11:22:49;;;;;;;8.85;4.72;;;;;;;10.40;73.28;102589.19;5043790;28;20106;-84
2022/01/26 11:25:19;;;;;;;12.02;6.20;;;;;;;10.25;72.95;102577.00;5057574;28;20469;-80
2022/01/26 11:27:48;;;;;;;14.60;5.45;;;;;;;10.10;74.06;102587.19;5046354;28;20037;-78
2022/01/26 11:30:15;;;;;;;12.23;4.97;;;;;;;9.94;74.98;102587.63;5052017;28;20033;-77
2022/01/26 11:33:04;;;;;;;13.55;5.43;;;;;;;9.87;75.86;102578.34;5029613;28;20136;-79
2022/01/26 11:35:34;;;;;;;12.07;4.88;;;;;;;9.91;75.61;102582.50;5021664;28;20030;-85
2022/01/26 11:39:03;;;;;;;14.73;5.70;;;;;;;9.91;75.80;102585.19;5053541;28;20036;-79
2022/01/26 11:47:17;;;;;;;10.77;4.55;;;;;;;9.85;76.26;102565.06;5042874;28;20032;-78
2022/01/26 11:49:44;;;;;;;3.80;2.55;;;;;;;9.80;76.05;102566.41;5055515;28;20033;-79
2022/01/26 11:52:21;;;;;;;8.82;3.65;;;;;;;9.69;76.13;102565.47;5049439;28;20028;-81
2022/01/26 11:54:53;;;;;;;15.63;5.32;;;;;;;9.66;76.30;102559.50;5061193;28;20049;-81
2022/01/26 11:57:45;;;;;;;11.70;4.38;;;;;;;9.69;76.38;102554.72;5026239;28;20533;-81
2022/01/26 12:00:20;;;;;;;12.50;5.13;;;;;;;9.72;76.44;102550.09;5039189;28;20450;-81
2022/01/26 12:05:19;;;;;;;9.10;4.82;;;;;;;10.57;73.50;102517.81;5031868;28;20112;-82
2022/01/26 12:07:55;;;;;;;8.63;3.42;;;;;;;12.53;66.60;102526.13;5023518;28;20065;-81
2022/01/26 12:10:32;;;;;;;10.45;3.58;;;;;;;13.81;61.18;102501.06;5020188;28;20041;-80
2022/01/26 12:13:06;;;;;;;7.63;3.55;;;;;;;13.85;59.47;102516.81;5017816;28;20033;-80
2022/01/26 12:18:53;;;;;;;14.25;6.43;;;;;;;11.83;67.62;102503.91;5048909;28;20041;-79
2022/01/26 12:38:20;;;;;;;11.60;4.70;;;;;;;10.86;72.27;102471.38;5051146;28;20029;-80
2022/01/26 12:43:47;;;;;;;12.30;5.80;;;;;;;11.13;71.93;102481.50;5053617;28;20470;-81
2022/01/26 12:46:25;;;;;;;18.50;7.93;;;;;;;11.15;71.80;102474.16;5034225;28;20131;-82
2022/01/26 12:48:53;;;;;;;16.00;6.15;;;;;;;10.99;72.07;102470.13;5032609;28;20048;-80
2022/01/26 12:51:19;;;;;;;7.63;4.03;;;;;;;10.77;72.93;102470.34;5018434;28;20032;-81
2022/01/26 12:53:53;;;;;;;17.55;7.05;;;;;;;10.85;73.72;102453.50;5018882;28;20041;-79
2022/01/26 12:56:22;;;;;;;9.02;3.40;;;;;;;10.99;73.16;102453.13;5047296;28;20048;-80
2022/01/26 12:58:59;;;;;;;13.15;4.70;;;;;;;11.01;72.94;102445.78;5052780;28;20471;-78
2022/01/26 13:01:24;;;;;;;10.10;4.47;;;;;;;11.11;73.67;102445.78;5032986;28;20033;-79
2022/01/26 13:03:55;;;;;;;7.78;4.03;;;;;;;11.26;73.25;102444.41;5052987;28;20044;-82
2022/01/26 13:06:24;;;;;;;18.85;7.00;;;;;;;11.31;73.38;102439.47;5017384;28;20029;-80
2022/01/26 13:08:55;;;;;;;10.55;5.40;;;;;;;11.43;72.99;102432.09;5058270;28;20072;-84
2022/01/26 13:11:24;;;;;;;9.48;5.40;;;;;;;11.45;73.03;102427.41;5018100;28;20037;-80
2022/01/26 13:14:19;;;;;;;23.77;8.00;;;;;;;11.34;73.83;102420.31;5043893;28;20076;-81
2022/01/26 13:28:34;;;;;;;8.30;3.95;;;;;;;10.24;78.92;102393.34;5024730;28;20452;-80
2022/01/26 13:47:53;;;;;;;30.55;11.55;;;;;;;10.57;79.24;102383.31;5012130;28;20041;-82
2022/01/26 14:01:03;;;;;;;8.35;3.83;;;;;;;10.79;79.43;102374.19;5050311;28;20052;-79
2022/01/26 14:03:32;;;;;;;17.38;5.78;;;;;;;10.82;79.75;102365.81;5048063;28;20064;-80
2022/01/26 14:05:58;;;;;;;14.20;6.13;;;;;;;10.88;79.74;102370.66;5046126;28;20253;-78
2022/01/26 14:08:24;;;;;;;10.10;3.70;;;;;;;10.87;79.87;102357.34;5032323;28;20032;-77
2022/01/26 14:10:50;;;;;;;15.30;5.80;;;;;;;10.92;79.70;102353.25;5051040;28;20533;-78
2022/01/26 14:13:21;;;;;;;13.05;5.65;;;;;;;11.11;79.37;102344.34;5042998;28;20646;-79
2022/01/26 14:15:50;;;;;;;18.70;8.23;;;;;;;11.29;79.07;102340.97;5051221;28;20048;-85
2022/01/26 14:25:49;;;;;;;16.85;5.78;;;;;;;11.58;77.74;102319.38;5047603;28;20033;-79